createdAt,value
2016-10-23T00:01:02.051Z,20.6
2016-10-23T00:02:14.945Z,20.57
2016-10-23T00:03:27.168Z,20.6
2016-10-23T00:04:39.834Z,20.58
2016-10-23T00:05:52.212Z,20.57
2016-10-23T00:07:05.167Z,20.57
2016-10-23T00:08:18.076Z,20.6
2016-10-23T00:09:31.486Z,20.61
2016-10-23T00:10:44.970Z,20.61
2016-10-23T00:11:58.426Z,20.57
2016-10-23T00:13:11.363Z,20.57
2016-10-23T00:14:24.423Z,20.58
2016-10-23T00:15:37.331Z,20.51
2016-10-23T00:16:50.186Z,20.42
2016-10-23T00:18:03.623Z,20.49
2016-10-23T00:19:17.121Z,20.48
2016-10-23T00:20:30.048Z,20.48
2016-10-23T00:21:43.539Z,20.48
2016-10-23T00:22:56.417Z,20.49
2016-10-23T00:24:09.332Z,20.44
2016-10-23T00:25:22.420Z,20.42
2016-10-23T00:26:35.354Z,20.49
2016-10-23T00:27:48.277Z,20.46
2016-10-23T00:29:01.775Z,20.44
2016-10-23T00:30:14.786Z,20.46
2016-10-23T00:31:27.226Z,20.48
2016-10-23T00:32:40.176Z,20.49
2016-10-23T00:33:53.143Z,20.42
2016-10-23T00:35:05.527Z,20.32
2016-10-23T00:36:19.148Z,20.35
2016-10-23T00:37:32.085Z,20.32
2016-10-23T00:38:45.020Z,20.41
2016-10-23T00:39:57.404Z,20.37
2016-10-23T00:41:10.316Z,20.35
2016-10-23T00:42:23.774Z,20.4
2016-10-23T00:43:36.185Z,20.3
2016-10-23T00:44:49.108Z,20.29
2016-10-23T00:46:01.512Z,20.4
2016-10-23T00:47:14.103Z,20.32
2016-10-23T00:48:26.976Z,20.38
2016-10-23T00:49:39.350Z,20.3
2016-10-23T00:50:52.837Z,20.23
2016-10-23T00:52:06.318Z,20.25
2016-10-23T00:53:19.247Z,20.26
2016-10-23T00:54:31.605Z,20.27
2016-10-23T00:55:44.569Z,20.26
2016-10-23T00:56:56.937Z,20.29
2016-10-23T00:58:10.064Z,20.25
2016-10-23T00:59:23.051Z,20.22
2016-10-23T01:00:35.891Z,20.22
2016-10-23T01:01:48.832Z,20.26
2016-10-23T01:03:01.758Z,20.27
2016-10-23T01:04:13.685Z,20.23
2016-10-23T01:05:26.092Z,20.3
2016-10-23T01:06:39.022Z,20.23
2016-10-23T01:07:52.433Z,20.2
2016-10-23T01:09:04.947Z,20.26
2016-10-23T01:10:17.359Z,20.29
2016-10-23T01:11:30.233Z,20.27
2016-10-23T01:12:42.695Z,20.25
2016-10-23T01:13:55.085Z,20.19
2016-10-23T01:15:08.109Z,20.19
2016-10-23T01:16:21.514Z,20.15
2016-10-23T01:17:34.957Z,20.19
2016-10-23T01:18:48.402Z,20.19
2016-10-23T01:20:00.913Z,20.18
2016-10-23T01:21:14.452Z,20.12
2016-10-23T01:22:27.925Z,20.15
2016-10-23T01:23:39.792Z,20.12
2016-10-23T01:24:52.188Z,20.22
2016-10-23T01:26:05.648Z,20.16
2016-10-23T01:27:18.544Z,20.2
2016-10-23T01:28:30.382Z,20.12
2016-10-23T01:29:43.901Z,20.11
2016-10-23T01:30:56.452Z,20.2
2016-10-23T01:32:08.883Z,20.12
2016-10-23T01:33:22.273Z,20.18
2016-10-23T01:34:35.742Z,20.12
2016-10-23T01:35:49.198Z,20.15
2016-10-23T01:37:02.805Z,20.2
2016-10-23T01:38:15.731Z,20.1
2016-10-23T01:39:28.663Z,20.22
2016-10-23T01:40:41.181Z,20.11
2016-10-23T01:41:54.253Z,20.04
2016-10-23T01:43:06.636Z,20.07
2016-10-23T01:44:18.466Z,20.01
2016-10-23T01:45:31.892Z,20
2016-10-23T01:46:44.890Z,20.05
2016-10-23T01:47:57.329Z,20.11
2016-10-23T01:49:10.265Z,20.05
2016-10-23T01:50:23.192Z,20.11
2016-10-23T01:51:36.156Z,20.05
2016-10-23T01:52:49.805Z,20.08
2016-10-23T01:54:03.293Z,20.08
2016-10-23T01:55:16.739Z,20.15
2016-10-23T01:56:29.168Z,20.01
2016-10-23T01:57:41.041Z,20.07
2016-10-23T01:58:53.479Z,20.07
2016-10-23T02:00:06.412Z,20.02
2016-10-23T02:01:19.359Z,19.98
2016-10-23T02:02:32.253Z,20.07
2016-10-23T02:03:45.329Z,20
2016-10-23T02:04:58.245Z,20.01
2016-10-23T02:06:11.176Z,20.08
2016-10-23T02:07:23.618Z,20.08
2016-10-23T02:08:34.990Z,20.1
2016-10-23T02:09:47.377Z,20.1
2016-10-23T02:10:59.719Z,20.07
2016-10-23T02:12:13.182Z,20.11
2016-10-23T02:13:26.130Z,20.1
2016-10-23T02:14:39.135Z,20.16
2016-10-23T02:15:52.092Z,20.05
2016-10-23T02:17:05.561Z,20.05
2016-10-23T02:18:18.503Z,19.98
2016-10-23T02:19:31.958Z,19.95
2016-10-23T02:20:44.048Z,20.07
2016-10-23T02:21:56.429Z,20.07
2016-10-23T02:23:09.937Z,20.1
2016-10-23T02:24:22.887Z,20.11
2016-10-23T02:25:36.504Z,20.02
2016-10-23T02:26:49.971Z,20.1
2016-10-23T02:28:02.898Z,20.04
2016-10-23T02:29:15.355Z,20.1
2016-10-23T02:30:27.758Z,20.1
2016-10-23T02:31:41.187Z,20.07
2016-10-23T02:32:53.604Z,20.01
2016-10-23T02:34:06.026Z,20.01
2016-10-23T02:35:19.471Z,20.04
2016-10-23T02:37:03.955Z,20
2016-10-23T02:38:16.963Z,19.98
2016-10-23T02:39:29.463Z,20.02
2016-10-23T02:40:42.461Z,19.9
2016-10-23T02:41:55.981Z,20.04
2016-10-23T02:43:09.602Z,20.05
2016-10-23T02:44:22.116Z,20.05
2016-10-23T02:45:35.094Z,20.02
2016-10-23T02:46:48.068Z,20
2016-10-23T02:48:00.114Z,19.92
2016-10-23T02:49:13.090Z,19.98
2016-10-23T02:50:26.592Z,19.97
2016-10-23T02:51:39.069Z,20
2016-10-23T02:52:51.541Z,19.98
2016-10-23T02:54:05.093Z,19.98
2016-10-23T02:55:17.551Z,20.05
2016-10-23T02:56:30.022Z,20.02
2016-10-23T02:57:43.020Z,20
2016-10-23T02:58:56.777Z,20.02
2016-10-23T03:00:08.764Z,20.01
2016-10-23T03:01:21.211Z,19.95
2016-10-23T03:02:34.763Z,20
2016-10-23T03:03:48.248Z,20
2016-10-23T03:05:01.752Z,20.01
2016-10-23T03:06:14.191Z,19.93
2016-10-23T03:07:27.165Z,19.93
2016-10-23T03:08:40.749Z,19.98
2016-10-23T03:09:53.899Z,19.98
2016-10-23T03:11:06.910Z,20.04
2016-10-23T03:12:19.932Z,19.97
2016-10-23T03:13:32.893Z,19.97
2016-10-23T03:14:45.951Z,19.97
2016-10-23T03:15:58.447Z,19.98
2016-10-23T03:17:11.958Z,19.9
2016-10-23T03:18:24.423Z,20
2016-10-23T03:19:38.209Z,19.93
2016-10-23T03:20:52.244Z,19.98
2016-10-23T03:22:05.584Z,19.97
2016-10-23T03:23:18.539Z,20.02
2016-10-23T03:24:31.522Z,19.93
2016-10-23T03:25:44.996Z,19.92
2016-10-23T03:26:58.122Z,20.01
2016-10-23T03:28:10.668Z,20
2016-10-23T03:29:23.642Z,19.97
2016-10-23T03:30:36.194Z,20.02
2016-10-23T03:31:48.342Z,19.95
2016-10-23T03:33:00.308Z,19.92
2016-10-23T03:34:13.338Z,19.9
2016-10-23T03:35:26.347Z,19.92
2016-10-23T03:36:39.339Z,19.97
2016-10-23T03:37:52.388Z,19.97
2016-10-23T03:39:04.989Z,19.9
2016-10-23T03:40:18.485Z,19.83
2016-10-23T03:41:32.017Z,19.93
2016-10-23T03:42:45.763Z,19.85
2016-10-23T03:43:59.256Z,19.92
2016-10-23T03:45:11.805Z,19.87
2016-10-23T03:46:24.880Z,19.98
2016-10-23T03:47:37.478Z,19.97
2016-10-23T03:48:51.048Z,19.92
2016-10-23T03:50:04.629Z,19.89
2016-10-23T03:51:17.586Z,19.95
2016-10-23T03:52:30.693Z,19.97
2016-10-23T03:53:43.306Z,20.01
2016-10-23T03:54:56.241Z,19.9
2016-10-23T03:56:09.201Z,19.87
2016-10-23T03:57:22.790Z,19.82
2016-10-23T03:58:36.326Z,19.89
2016-10-23T03:59:50.056Z,19.93
2016-10-23T04:01:03.578Z,19.92
2016-10-23T04:02:16.700Z,19.89
2016-10-23T04:03:30.223Z,19.85
2016-10-23T04:04:42.835Z,19.92
2016-10-23T04:05:56.367Z,19.87
2016-10-23T04:07:09.919Z,19.8
2016-10-23T04:08:22.421Z,19.78
2016-10-23T04:09:35.423Z,19.9
2016-10-23T04:10:48.538Z,19.89
2016-10-23T04:12:01.551Z,19.82
2016-10-23T04:13:14.581Z,19.83
2016-10-23T04:14:28.161Z,19.85
2016-10-23T04:15:41.318Z,19.83
2016-10-23T04:16:54.906Z,19.82
2016-10-23T04:18:08.472Z,19.75
2016-10-23T04:19:20.925Z,19.8
2016-10-23T04:20:33.953Z,19.82
2016-10-23T04:21:46.528Z,19.86
2016-10-23T04:22:59.548Z,19.87
2016-10-23T04:24:12.035Z,19.79
2016-10-23T04:25:25.617Z,19.87
2016-10-23T04:26:38.741Z,19.87
2016-10-23T04:27:51.212Z,19.85
2016-10-23T04:29:04.690Z,19.87
2016-10-23T04:30:16.066Z,19.95
2016-10-23T04:31:29.023Z,19.86
2016-10-23T04:32:42.164Z,19.86
2016-10-23T04:33:55.192Z,19.75
2016-10-23T04:35:08.117Z,19.92
2016-10-23T04:36:21.552Z,19.97
2016-10-23T04:37:35.182Z,19.92
2016-10-23T04:38:48.119Z,19.93
2016-10-23T04:40:01.032Z,19.8
2016-10-23T04:41:14.053Z,19.92
2016-10-23T04:42:27.584Z,19.79
2016-10-23T04:43:41.242Z,19.86
2016-10-23T04:44:54.200Z,19.87
2016-10-23T04:46:06.577Z,19.8
2016-10-23T04:47:19.016Z,19.83
2016-10-23T04:48:31.088Z,19.8
2016-10-23T04:49:44.544Z,19.87
2016-10-23T04:50:58.026Z,19.78
2016-10-23T04:52:11.492Z,19.82
2016-10-23T04:53:24.429Z,19.8
2016-10-23T04:54:37.542Z,19.85
2016-10-23T04:55:49.899Z,19.79
2016-10-23T04:57:02.263Z,19.82
2016-10-23T04:58:13.569Z,19.74
2016-10-23T04:59:27.052Z,19.85
2016-10-23T05:00:40.498Z,19.82
2016-10-23T05:01:53.444Z,19.86
2016-10-23T05:03:05.902Z,19.79
2016-10-23T05:04:18.838Z,19.82
2016-10-23T05:05:32.423Z,19.85
2016-10-23T05:06:44.832Z,19.8
2016-10-23T05:07:57.829Z,19.82
2016-10-23T05:09:10.251Z,19.8
2016-10-23T05:10:22.756Z,19.83
2016-10-23T05:11:35.203Z,19.79
2016-10-23T05:12:48.647Z,19.79
2016-10-23T05:14:02.135Z,19.8
2016-10-23T05:15:14.587Z,19.74
2016-10-23T05:16:28.183Z,19.74
2016-10-23T05:17:41.564Z,19.8
2016-10-23T05:18:53.976Z,19.7
2016-10-23T05:20:06.967Z,19.71
2016-10-23T05:21:20.012Z,19.72
2016-10-23T05:22:32.927Z,19.74
2016-10-23T05:23:45.322Z,19.75
2016-10-23T05:24:58.254Z,19.72
2016-10-23T05:26:11.191Z,19.79
2016-10-23T05:27:24.628Z,19.7
2016-10-23T05:28:37.517Z,19.74
2016-10-23T05:29:50.393Z,19.74
2016-10-23T05:31:03.824Z,19.7
2016-10-23T05:32:16.905Z,19.67
2016-10-23T05:33:29.776Z,19.72
2016-10-23T05:34:42.749Z,19.74
2016-10-23T05:35:55.708Z,19.72
2016-10-23T05:37:08.727Z,19.75
2016-10-23T05:38:22.236Z,19.74
2016-10-23T05:39:35.191Z,19.74
2016-10-23T05:40:48.616Z,19.74
2016-10-23T05:42:00.466Z,19.75
2016-10-23T05:43:12.503Z,19.71
2016-10-23T05:44:25.568Z,19.72
2016-10-23T05:45:38.507Z,19.75
2016-10-23T05:46:50.882Z,19.74
2016-10-23T05:48:04.389Z,19.71
2016-10-23T05:49:16.283Z,19.64
2016-10-23T05:50:29.209Z,19.8
2016-10-23T05:51:42.129Z,19.75
2016-10-23T05:52:55.065Z,19.71
2016-10-23T05:54:08.110Z,19.68
2016-10-23T05:55:21.494Z,19.67
2016-10-23T05:56:34.462Z,19.67
2016-10-23T05:57:47.340Z,19.57
2016-10-23T05:59:00.285Z,19.65
2016-10-23T06:00:13.269Z,19.65
2016-10-23T06:01:26.713Z,19.6
2016-10-23T06:02:40.178Z,19.71
2016-10-23T06:03:53.625Z,19.65
2016-10-23T06:05:07.170Z,19.64
2016-10-23T06:06:20.204Z,19.7
2016-10-23T06:07:33.128Z,19.68
2016-10-23T06:08:45.523Z,19.64
2016-10-23T06:09:58.037Z,19.68
2016-10-23T06:11:10.957Z,19.67
2016-10-23T06:12:23.333Z,19.63
2016-10-23T06:13:36.258Z,19.63
2016-10-23T06:14:49.775Z,19.61
2016-10-23T06:16:02.316Z,19.63
2016-10-23T06:17:15.266Z,19.57
2016-10-23T06:18:27.800Z,19.65
2016-10-23T06:19:41.238Z,19.56
2016-10-23T06:20:54.725Z,19.64
2016-10-23T06:22:07.761Z,19.64
2016-10-23T06:23:20.634Z,19.57
2016-10-23T06:24:33.509Z,19.64
2016-10-23T06:25:45.881Z,19.57
2016-10-23T06:26:59.481Z,19.56
2016-10-23T06:28:11.337Z,19.63
2016-10-23T06:29:24.388Z,19.6
2016-10-23T06:30:36.231Z,19.63
2016-10-23T06:31:48.660Z,19.63
2016-10-23T06:33:02.421Z,19.57
2016-10-23T06:34:15.483Z,19.63
2016-10-23T06:35:27.823Z,19.64
2016-10-23T06:36:40.744Z,19.61
2016-10-23T06:37:54.005Z,19.67
2016-10-23T06:39:06.100Z,19.6
2016-10-23T06:40:19.053Z,19.64
2016-10-23T06:41:32.141Z,19.6
2016-10-23T06:42:45.353Z,19.61
2016-10-23T06:43:57.780Z,19.67
2016-10-23T06:45:10.245Z,19.6
2016-10-23T06:46:22.265Z,19.63
2016-10-23T06:47:34.814Z,19.65
2016-10-23T06:48:47.775Z,19.65
2016-10-23T06:50:01.413Z,19.55
2016-10-23T06:51:14.129Z,19.65
2016-10-23T06:52:27.087Z,19.64
2016-10-23T06:53:40.470Z,19.67
2016-10-23T06:54:53.371Z,19.61
2016-10-23T06:56:05.762Z,19.67
2016-10-23T06:57:18.879Z,19.65
2016-10-23T06:58:32.343Z,19.64
2016-10-23T06:59:45.377Z,19.7
2016-10-23T07:00:58.356Z,19.6
2016-10-23T07:02:11.264Z,19.67
2016-10-23T07:03:24.853Z,19.68
2016-10-23T07:04:37.793Z,19.56
2016-10-23T07:05:51.230Z,19.67
2016-10-23T07:07:03.215Z,19.65
2016-10-23T07:08:16.785Z,19.65
2016-10-23T07:09:29.768Z,19.63
2016-10-23T07:10:42.789Z,19.68
2016-10-23T07:11:55.722Z,19.65
2016-10-23T07:13:09.164Z,19.61
2016-10-23T07:14:22.100Z,19.63
2016-10-23T07:15:35.040Z,19.65
2016-10-23T07:16:47.559Z,19.65
2016-10-23T07:18:00.494Z,19.6
2016-10-23T07:19:13.948Z,19.6
2016-10-23T07:20:27.418Z,19.64
2016-10-23T07:21:40.989Z,19.61
2016-10-23T07:22:53.921Z,19.6
2016-10-23T07:24:07.411Z,19.6
2016-10-23T07:25:18.215Z,19.64
2016-10-23T07:26:30.566Z,19.63
2016-10-23T07:27:43.088Z,19.57
2016-10-23T07:28:55.958Z,19.63
2016-10-23T07:30:08.849Z,19.68
2016-10-23T07:31:21.754Z,19.64
2016-10-23T07:32:34.827Z,19.56
2016-10-23T07:33:48.354Z,19.65
2016-10-23T07:35:01.901Z,19.57
2016-10-23T07:36:14.820Z,19.63
2016-10-23T07:37:27.837Z,19.64
2016-10-23T07:38:40.294Z,19.63
2016-10-23T07:39:53.763Z,19.63
2016-10-23T07:41:06.165Z,19.63
2016-10-23T07:42:18.521Z,19.57
2016-10-23T07:43:31.001Z,19.65
2016-10-23T07:44:43.938Z,19.56
2016-10-23T07:45:56.879Z,19.64
2016-10-23T07:47:09.843Z,19.63
2016-10-23T07:48:22.843Z,19.63
2016-10-23T07:49:36.325Z,19.6
2016-10-23T07:50:49.264Z,19.6
2016-10-23T07:52:02.153Z,19.67
2016-10-23T07:53:15.626Z,19.67
2016-10-23T07:54:28.631Z,19.71
2016-10-23T07:55:42.121Z,19.56
2016-10-23T07:56:55.093Z,19.7
2016-10-23T07:58:08.031Z,19.67
2016-10-23T07:59:20.939Z,19.57
2016-10-23T08:00:34.001Z,19.61
2016-10-23T08:01:47.447Z,19.64
2016-10-23T08:03:00.365Z,19.63
2016-10-23T08:04:13.299Z,19.63
2016-10-23T08:05:26.871Z,19.64
2016-10-23T08:06:39.789Z,19.61
2016-10-23T08:07:52.252Z,19.61
2016-10-23T08:09:05.186Z,19.55
2016-10-23T08:10:18.156Z,19.5
2016-10-23T08:11:31.093Z,19.5
2016-10-23T08:12:43.500Z,19.5
2016-10-23T08:13:56.971Z,19.56
2016-10-23T08:15:10.387Z,19.61
2016-10-23T08:16:23.881Z,19.5
2016-10-23T08:17:36.308Z,19.52
2016-10-23T08:18:49.240Z,19.49
2016-10-23T08:20:02.646Z,19.56
2016-10-23T08:21:16.158Z,19.5
2016-10-23T08:22:29.705Z,19.52
2016-10-23T08:23:43.165Z,19.56
2016-10-23T08:24:56.107Z,19.53
2016-10-23T08:26:08.516Z,19.53
2016-10-23T08:27:21.021Z,19.52
2016-10-23T08:28:33.974Z,19.55
2016-10-23T08:29:47.427Z,19.56
2016-10-23T08:31:00.326Z,19.52
2016-10-23T08:32:13.236Z,19.43
2016-10-23T08:33:26.692Z,19.57
2016-10-23T08:34:39.583Z,19.49
2016-10-23T08:35:52.506Z,19.47
2016-10-23T08:37:05.452Z,19.55
2016-10-23T08:38:17.976Z,19.61
2016-10-23T08:39:30.423Z,19.53
2016-10-23T08:40:42.352Z,19.55
2016-10-23T08:41:55.750Z,19.55
2016-10-23T08:43:09.205Z,19.57
2016-10-23T08:44:22.140Z,19.61
2016-10-23T08:45:35.546Z,19.46
2016-10-23T08:46:47.475Z,19.63
2016-10-23T08:48:00.398Z,19.6
2016-10-23T08:49:12.978Z,19.63
2016-10-23T08:50:24.883Z,19.67
2016-10-23T08:51:38.357Z,19.64
2016-10-23T08:52:51.879Z,19.67
2016-10-23T08:54:04.261Z,19.72
2016-10-23T08:55:17.230Z,19.67
2016-10-23T08:56:30.205Z,19.78
2016-10-23T08:57:43.185Z,19.78
2016-10-23T08:58:55.513Z,19.78
2016-10-23T09:00:09.052Z,19.78
2016-10-23T09:01:21.964Z,19.78
2016-10-23T09:02:35.372Z,19.74
2016-10-23T09:03:48.808Z,19.8
2016-10-23T09:05:01.130Z,19.82
2016-10-23T09:06:14.061Z,19.86
2016-10-23T09:07:26.943Z,19.8
2016-10-23T09:08:39.378Z,19.87
2016-10-23T09:09:52.310Z,19.87
2016-10-23T09:11:03.748Z,19.93
2016-10-23T09:12:16.696Z,20
2016-10-23T09:13:30.192Z,20.02
2016-10-23T09:14:42.619Z,20.07
2016-10-23T09:15:55.026Z,20.08
2016-10-23T09:17:07.434Z,20.11
2016-10-23T09:18:20.360Z,20.07
2016-10-23T09:19:33.781Z,20.18
2016-10-23T09:20:47.201Z,20.22
2016-10-23T09:21:58.649Z,20.29
2016-10-23T09:23:12.104Z,20.29
2016-10-23T09:24:24.539Z,20.4
2016-10-23T09:25:38.007Z,20.41
2016-10-23T09:26:51.057Z,20.46
2016-10-23T09:28:04.586Z,20.48
2016-10-23T09:29:18.059Z,20.46
2016-10-23T09:30:30.471Z,20.51
2016-10-23T09:31:42.850Z,20.54
2016-10-23T09:32:54.857Z,20.64
2016-10-23T09:34:07.264Z,20.67
2016-10-23T09:35:20.226Z,20.67
2016-10-23T09:36:33.691Z,20.78
2016-10-23T09:37:47.116Z,20.79
2016-10-23T09:39:00.126Z,20.75
2016-10-23T09:40:13.082Z,20.85
2016-10-23T09:41:26.534Z,21
2016-10-23T09:42:40.018Z,20.94
2016-10-23T09:43:52.514Z,20.94
2016-10-23T09:45:04.366Z,20.98
2016-10-23T09:46:17.302Z,20.96
2016-10-23T09:47:29.677Z,21.09
2016-10-23T09:48:42.086Z,21.01
2016-10-23T09:49:55.031Z,21.13
2016-10-23T09:51:07.446Z,21.16
2016-10-23T09:52:20.895Z,21.25
2016-10-23T09:53:34.357Z,21.37
2016-10-23T09:54:47.503Z,21.46
2016-10-23T09:56:01.016Z,21.36
2016-10-23T09:57:13.958Z,21.46
2016-10-23T09:58:27.490Z,21.52
2016-10-23T09:59:40.414Z,21.64
2016-10-23T10:00:54.044Z,21.62
2016-10-23T10:02:06.919Z,21.73
2016-10-23T10:03:19.823Z,21.82
2016-10-23T10:04:32.293Z,22.02
2016-10-23T10:05:44.326Z,22
2016-10-23T10:06:57.275Z,22.09
2016-10-23T10:08:10.227Z,22.22
2016-10-23T10:09:23.685Z,22.18
2016-10-23T10:10:36.695Z,22.36
2016-10-23T10:11:50.385Z,22.45
2016-10-23T10:13:02.296Z,22.38
2016-10-23T10:14:15.791Z,22.39
2016-10-23T10:15:29.316Z,22.46
2016-10-23T10:16:41.873Z,22.6
2016-10-23T10:17:55.388Z,22.59
2016-10-23T10:19:08.367Z,22.64
2016-10-23T10:20:21.419Z,22.7
2016-10-23T10:21:34.360Z,22.88
2016-10-23T10:22:47.519Z,22.96
2016-10-23T10:24:00.939Z,22.94
2016-10-23T10:25:14.373Z,23.07
2016-10-23T10:26:27.818Z,23.22
2016-10-23T10:27:41.377Z,23.26
2016-10-23T10:28:54.372Z,23.34
2016-10-23T10:30:07.364Z,23.29
2016-10-23T10:31:20.330Z,23.41
2016-10-23T10:32:32.774Z,23.47
2016-10-23T10:33:46.475Z,23.52
2016-10-23T10:34:58.931Z,23.52
2016-10-23T10:36:11.953Z,23.62
2016-10-23T10:37:23.930Z,23.63
2016-10-23T10:38:37.514Z,23.62
2016-10-23T10:39:50.523Z,23.64
2016-10-23T10:41:02.892Z,23.7
2016-10-23T10:42:16.305Z,23.78
2016-10-23T10:43:29.229Z,23.82
2016-10-23T10:44:41.714Z,23.85
2016-10-23T10:45:54.614Z,23.97
2016-10-23T10:47:07.570Z,24.12
2016-10-23T10:48:21.033Z,24.15
2016-10-23T10:49:34.621Z,24.27
2016-10-23T10:50:47.566Z,24.44
2016-10-23T10:52:01.040Z,24.36
2016-10-23T10:53:14.064Z,24.48
2016-10-23T10:54:27.003Z,24.59
2016-10-23T10:55:40.089Z,24.52
2016-10-23T10:56:53.574Z,24.69
2016-10-23T10:58:05.975Z,24.63
2016-10-23T10:59:18.959Z,24.58
2016-10-23T11:00:31.999Z,24.63
2016-10-23T11:01:45.495Z,24.67
2016-10-23T11:02:59.058Z,24.66
2016-10-23T11:04:12.002Z,24.7
2016-10-23T11:05:25.508Z,24.71
2016-10-23T11:06:37.592Z,24.93
2016-10-23T11:07:51.262Z,25.11
2016-10-23T11:09:04.361Z,25.27
2016-10-23T11:10:16.980Z,25.32
2016-10-23T11:11:29.969Z,25.48
2016-10-23T11:12:43.442Z,25.52
2016-10-23T11:13:56.383Z,25.7
2016-10-23T11:15:09.425Z,25.63
2016-10-23T11:16:22.819Z,25.45
2016-10-23T11:17:35.789Z,25.45
2016-10-23T11:18:48.711Z,25.44
2016-10-23T11:20:02.139Z,25.48
2016-10-23T11:21:14.547Z,25.38
2016-10-23T11:22:27.187Z,25.38
2016-10-23T11:23:39.255Z,25.34
2016-10-23T11:24:52.345Z,25.44
2016-10-23T11:26:05.827Z,25.44
2016-10-23T11:27:18.792Z,25.47
2016-10-23T11:28:32.312Z,25.51
2016-10-23T11:29:45.231Z,25.6
2016-10-23T11:30:58.121Z,25.69
2016-10-23T11:32:11.602Z,25.94
2016-10-23T11:33:24.741Z,26
2016-10-23T11:34:38.203Z,26.11
2016-10-23T11:35:51.686Z,26.17
2016-10-23T11:37:05.229Z,26.24
2016-10-23T11:38:18.719Z,26.31
2016-10-23T11:39:30.645Z,26.37
2016-10-23T11:40:43.573Z,26.32
2016-10-23T11:41:56.492Z,26.3
2016-10-23T11:43:09.960Z,26.17
2016-10-23T11:44:23.164Z,26.26
2016-10-23T11:45:36.060Z,26.39
2016-10-23T11:46:49.494Z,26.45
2016-10-23T11:48:02.462Z,26.52
2016-10-23T11:49:16.028Z,26.5
2016-10-23T11:50:29.088Z,26.67
2016-10-23T11:51:42.556Z,26.68
2016-10-23T11:52:55.567Z,26.57
2016-10-23T11:54:08.622Z,26.47
2016-10-23T11:55:21.717Z,26.5
2016-10-23T11:56:34.657Z,26.39
2016-10-23T11:57:47.821Z,26.49
2016-10-23T11:59:01.024Z,26.42
2016-10-23T12:00:13.971Z,26.42
2016-10-23T12:01:27.046Z,26.47
2016-10-23T12:02:38.449Z,26.53
2016-10-23T12:03:51.964Z,26.56
2016-10-23T12:05:05.491Z,26.56
2016-10-23T12:06:18.017Z,26.53
2016-10-23T12:07:31.471Z,26.53
2016-10-23T12:08:44.930Z,26.42
2016-10-23T12:09:56.868Z,26.47
2016-10-23T12:11:10.388Z,26.53
2016-10-23T12:12:24.007Z,26.41
2016-10-23T12:13:36.466Z,26.27
2016-10-23T12:14:49.419Z,26.22
2016-10-23T12:16:02.416Z,26.22
2016-10-23T12:17:16.034Z,26.23
2016-10-23T12:18:29.673Z,26.39
2016-10-23T12:19:43.240Z,26.42
2016-10-23T12:20:56.193Z,26.44
2016-10-23T12:22:09.194Z,26.38
2016-10-23T12:23:22.178Z,26.31
2016-10-23T12:24:35.470Z,26.38
2016-10-23T12:25:48.551Z,26.47
2016-10-23T12:27:02.300Z,26.44
2016-10-23T12:28:14.498Z,26.52
2016-10-23T12:29:28.009Z,26.37
2016-10-23T12:30:40.974Z,26.44
2016-10-23T12:31:54.740Z,26.42
2016-10-23T12:33:07.522Z,26.34
2016-10-23T12:34:20.203Z,26.42
2016-10-23T12:35:33.658Z,26.52
2016-10-23T12:36:45.030Z,26.54
2016-10-23T12:37:58.327Z,26.56
2016-10-23T12:39:11.633Z,26.64
2016-10-23T12:40:24.110Z,26.64
2016-10-23T12:41:37.086Z,26.68
2016-10-23T12:42:50.285Z,26.86
2016-10-23T12:44:02.506Z,26.81
2016-10-23T12:45:16.187Z,26.96
2016-10-23T12:46:28.148Z,26.93
2016-10-23T12:47:41.100Z,26.97
2016-10-23T12:48:54.051Z,27
2016-10-23T12:50:06.645Z,27.11
2016-10-23T12:51:20.202Z,27.11
2016-10-23T12:52:33.172Z,27.13
2016-10-23T12:53:46.749Z,27.23
2016-10-23T12:54:59.173Z,27.13
2016-10-23T12:56:12.655Z,27.11
2016-10-23T12:57:26.129Z,26.96
2016-10-23T12:58:39.588Z,26.79
2016-10-23T12:59:52.571Z,26.93
2016-10-23T13:01:06.235Z,26.75
2016-10-23T13:02:18.742Z,26.74
2016-10-23T13:03:31.700Z,26.79
2016-10-23T13:04:45.184Z,26.97
2016-10-23T13:05:58.064Z,27.01
2016-10-23T13:07:11.719Z,27.12
2016-10-23T13:08:24.694Z,27.23
2016-10-23T13:09:38.132Z,27.38
2016-10-23T13:10:51.616Z,27.55
2016-10-23T13:12:04.696Z,27.64
2016-10-23T13:13:18.190Z,27.69
2016-10-23T13:14:30.551Z,27.74
2016-10-23T13:15:42.455Z,27.74
2016-10-23T13:16:55.998Z,27.68
2016-10-23T13:18:07.927Z,27.68
2016-10-23T13:19:20.350Z,27.74
2016-10-23T13:20:33.261Z,27.83
2016-10-23T13:21:46.720Z,27.9
2016-10-23T13:23:00.367Z,27.9
2016-10-23T13:24:12.734Z,27.94
2016-10-23T13:25:24.074Z,27.96
2016-10-23T13:26:37.028Z,27.99
2016-10-23T13:27:49.978Z,27.93
2016-10-23T13:29:02.374Z,27.96
2016-10-23T13:30:15.939Z,27.89
2016-10-23T13:31:28.385Z,27.99
2016-10-23T13:32:41.303Z,28.08
2016-10-23T13:33:54.373Z,28.06
2016-10-23T13:35:07.283Z,28.14
2016-10-23T13:36:20.227Z,28.12
2016-10-23T13:37:33.175Z,28.16
2016-10-23T13:38:46.180Z,28.43
2016-10-23T13:39:58.624Z,28.67
2016-10-23T13:41:12.421Z,28.97
2016-10-23T13:42:24.828Z,29.17
2016-10-23T13:43:37.701Z,29.43
2016-10-23T13:44:49.238Z,29.65
2016-10-23T13:46:02.268Z,29.94
2016-10-23T13:47:14.679Z,30.14
2016-10-23T13:48:27.659Z,30.34
2016-10-23T13:49:41.163Z,30.52
2016-10-23T13:50:54.158Z,30.7
2016-10-23T13:52:07.664Z,30.96
2016-10-23T13:53:20.648Z,30.96
2016-10-23T13:54:33.598Z,30.93
2016-10-23T13:55:46.690Z,30.93
2016-10-23T13:57:00.143Z,31.15
2016-10-23T13:58:13.644Z,31.31
2016-10-23T13:59:26.552Z,31.38
2016-10-23T14:00:40.098Z,31.6
2016-10-23T14:01:53.537Z,31.8
2016-10-23T14:03:06.494Z,31.95
2016-10-23T14:04:18.935Z,32
2016-10-23T14:05:31.396Z,32.08
2016-10-23T14:06:44.473Z,31.97
2016-10-23T14:07:57.894Z,32.01
2016-10-23T14:09:10.315Z,32.08
2016-10-23T14:10:22.702Z,32.03
2016-10-23T14:11:36.145Z,32.1
2016-10-23T14:12:49.784Z,32.01
2016-10-23T14:14:02.760Z,32.05
2016-10-23T14:15:15.260Z,32.1
2016-10-23T14:16:27.648Z,32.08
2016-10-23T14:17:40.160Z,31.95
2016-10-23T14:18:53.689Z,31.9
2016-10-23T14:20:06.069Z,31.93
2016-10-23T14:21:19.003Z,32
2016-10-23T14:22:31.428Z,32
2016-10-23T14:23:44.977Z,32.01
2016-10-23T14:24:57.399Z,32.15
2016-10-23T14:26:10.899Z,32.24
2016-10-23T14:27:24.452Z,32.45
2016-10-23T14:28:37.560Z,32.39
2016-10-23T14:29:50.477Z,32.8
2016-10-23T14:31:03.390Z,33.11
2016-10-23T14:32:16.333Z,33.48
2016-10-23T14:33:29.300Z,33.77
2016-10-23T14:34:42.215Z,34.11
2016-10-23T14:35:54.095Z,34.58
2016-10-23T14:37:06.537Z,34.97
2016-10-23T14:38:20.007Z,35.4
2016-10-23T14:39:33.061Z,35.76
2016-10-23T14:40:46.538Z,36.12
2016-10-23T14:41:58.407Z,36.55
2016-10-23T14:43:11.380Z,36.67
2016-10-23T14:44:24.314Z,36.95
2016-10-23T14:45:36.748Z,37.17
2016-10-23T14:46:49.745Z,37.45
2016-10-23T14:48:03.289Z,37.79
2016-10-23T14:49:16.773Z,38.13
2016-10-23T14:50:30.359Z,38.42
2016-10-23T14:51:43.397Z,38.59
2016-10-23T14:52:56.359Z,38.8
2016-10-23T14:54:09.838Z,39.09
2016-10-23T14:55:21.732Z,39.37
2016-10-23T14:56:34.837Z,39.65
2016-10-23T14:57:48.312Z,39.79
2016-10-23T14:59:01.306Z,39.93
2016-10-23T15:00:13.701Z,40.09
2016-10-23T15:01:27.294Z,40.44
2016-10-23T15:02:40.760Z,40.79
2016-10-23T15:03:54.185Z,41.16
2016-10-23T15:05:06.064Z,41.54
2016-10-23T15:06:19.122Z,41.73
2016-10-23T15:07:32.374Z,42.01
2016-10-23T15:08:44.303Z,42.23
2016-10-23T15:09:57.807Z,42.41
2016-10-23T15:11:10.730Z,42.54
2016-10-23T15:12:23.821Z,42.63
2016-10-23T15:13:36.266Z,42.44
2016-10-23T15:14:49.240Z,42.47
2016-10-23T15:16:02.721Z,42.3
2016-10-23T15:17:15.677Z,42.17
2016-10-23T15:18:28.693Z,42.18
2016-10-23T15:19:41.082Z,42.25
2016-10-23T15:20:54.092Z,42.35
2016-10-23T15:22:07.064Z,42.47
2016-10-23T15:23:20.672Z,42.85
2016-10-23T15:24:33.627Z,43.15
2016-10-23T15:25:45.602Z,43.64
2016-10-23T15:26:58.515Z,44.08
2016-10-23T15:28:11.457Z,44.34
2016-10-23T15:29:24.925Z,44.66
2016-10-23T15:30:38.393Z,44.92
2016-10-23T15:31:51.430Z,45.12
2016-10-23T15:33:04.385Z,45.48
2016-10-23T15:34:17.484Z,45.79
2016-10-23T15:35:31.032Z,45.98
2016-10-23T15:36:43.501Z,45.98
2016-10-23T15:37:56.480Z,46.2
2016-10-23T15:39:08.960Z,46.4
2016-10-23T15:40:22.424Z,46.54
2016-10-23T15:41:34.385Z,46.66
2016-10-23T15:42:47.876Z,46.93
2016-10-23T15:44:01.327Z,47.24
2016-10-23T15:45:14.951Z,47.46
2016-10-23T15:46:28.421Z,47.66